sensor_id;sensor_type;location;lat;lon;timestamp;temperature;humidity
48264;DHT22;34086;51.076;13.722;2023-01-13T00:00:14;10.50;99.90
48264;DHT22;34086;51.076;13.722;2023-01-13T00:01:17;10.60;99.90
48264;DHT22;34086;51.076;13.722;2023-01-13T00:02:18;10.60;99.90
48264;DHT22;34086;51.076;13.722;2023-01-13T00:03:18;10.60;99.90
48264;DHT22;34086;51.076;13.722;2023-01-13T00:04:19;10.60;99.90
48264;DHT22;34086;51.076;13.722;2023-01-13T00:05:20;10.60;99.90
48264;DHT22;34086;51.076;13.722;2023-01-13T00:06:23;10.60;99.90
48264;DHT22;34086;51.076;13.722;2023-01-13T00:07:27;10.60;99.90
48264;DHT22;34086;51.076;13.722;2023-01-13T00:08:27;10.60;99.90
48264;DHT22;34086;51.076;13.722;2023-01-13T00:09:28;10.60;99.90
48264;DHT22;34086;51.076;13.722;2023-01-13T00:10:28;10.60;99.90
48264;DHT22;34086;51.076;13.722;2023-01-13T00:11:29;10.60;99.90
48264;DHT22;34086;51.076;13.722;2023-01-13T00:12:29;10.60;99.90
48264;DHT22;34086;51.076;13.722;2023-01-13T00:13:30;10.60;99.90
48264;DHT22;34086;51.076;13.722;2023-01-13T00:14:34;10.60;99.90
48264;DHT22;34086;51.076;13.722;2023-01-13T00:15:34;10.60;99.90
48264;DHT22;34086;51.076;13.722;2023-01-13T00:16:35;10.60;99.90
48264;DHT22;34086;51.076;13.722;2023-01-13T00:17:35;10.60;99.90
48264;DHT22;34086;51.076;13.722;2023-01-13T00:18:36;10.60;99.90
48264;DHT22;34086;51.076;13.722;2023-01-13T00:19:37;10.50;99.90
48264;DHT22;34086;51.076;13.722;2023-01-13T00:20:37;10.50;99.90
48264;DHT22;34086;51.076;13.722;2023-01-13T00:21:38;10.50;99.90
48264;DHT22;34086;51.076;13.722;2023-01-13T00:22:39;10.50;99.90
48264;DHT22;34086;51.076;13.722;2023-01-13T00:23:39;10.50;99.90
48264;DHT22;34086;51.076;13.722;2023-01-13T00:24:40;10.50;99.90
48264;DHT22;34086;51.076;13.722;2023-01-13T00:25:41;10.50;99.90
48264;DHT22;34086;51.076;13.722;2023-01-13T00:26:41;10.50;99.90
48264;DHT22;34086;51.076;13.722;2023-01-13T00:27:42;10.50;99.90
48264;DHT22;34086;51.076;13.722;2023-01-13T00:28:42;10.50;99.90
48264;DHT22;34086;51.076;13.722;2023-01-13T00:29:43;10.50;99.90
48264;DHT22;34086;51.076;13.722;2023-01-13T00:30:45;10.50;99.90
48264;DHT22;34086;51.076;13.722;2023-01-13T00:31:48;10.50;99.90
48264;DHT22;34086;51.076;13.722;2023-01-13T00:32:49;10.50;99.90
48264;DHT22;34086;51.076;13.722;2023-01-13T00:33:49;10.50;99.90
48264;DHT22;34086;51.076;13.722;2023-01-13T00:34:50;10.50;99.90
48264;DHT22;34086;51.076;13.722;2023-01-13T00:35:58;10.50;99.90
48264;DHT22;34086;51.076;13.722;2023-01-13T00:36:59;10.50;99.90
48264;DHT22;34086;51.076;13.722;2023-01-13T00:37:59;10.50;99.90
48264;DHT22;34086;51.076;13.722;2023-01-13T00:39:00;10.50;99.90
48264;DHT22;34086;51.076;13.722;2023-01-13T00:40:00;10.50;99.90
48264;DHT22;34086;51.076;13.722;2023-01-13T00:41:06;10.50;99.90
48264;DHT22;34086;51.076;13.722;2023-01-13T00:42:07;10.40;99.90
48264;DHT22;34086;51.076;13.722;2023-01-13T00:43:27;10.40;99.90
48264;DHT22;34086;51.076;13.722;2023-01-13T00:44:28;10.40;99.90
48264;DHT22;34086;51.076;13.722;2023-01-13T00:45:29;10.40;99.90
48264;DHT22;34086;51.076;13.722;2023-01-13T00:46:29;10.40;99.90
48264;DHT22;34086;51.076;13.722;2023-01-13T00:47:30;10.30;99.90
48264;DHT22;34086;51.076;13.722;2023-01-13T00:48:32;10.30;99.90
48264;DHT22;34086;51.076;13.722;2023-01-13T00:49:32;10.20;99.90
48264;DHT22;34086;51.076;13.722;2023-01-13T00:50:33;10.30;99.90
48264;DHT22;34086;51.076;13.722;2023-01-13T00:51:34;10.20;99.90
48264;DHT22;34086;51.076;13.722;2023-01-13T00:52:34;10.20;99.90
48264;DHT22;34086;51.076;13.722;2023-01-13T00:53:40;10.20;99.90
48264;DHT22;34086;51.076;13.722;2023-01-13T00:54:42;10.10;99.90
48264;DHT22;34086;51.076;13.722;2023-01-13T00:55:43;10.10;99.90
48264;DHT22;34086;51.076;13.722;2023-01-13T00:56:43;10.10;99.90
48264;DHT22;34086;51.076;13.722;2023-01-13T00:57:44;10.10;99.90
48264;DHT22;34086;51.076;13.722;2023-01-13T00:58:46;10.10;99.90
48264;DHT22;34086;51.076;13.722;2023-01-13T00:59:46;10.00;99.90
48264;DHT22;34086;51.076;13.722;2023-01-13T01:00:47;10.00;99.90
48264;DHT22;34086;51.076;13.722;2023-01-13T01:01:47;10.00;99.90
48264;DHT22;34086;51.076;13.722;2023-01-13T01:02:48;10.00;99.90
48264;DHT22;34086;51.076;13.722;2023-01-13T01:03:50;10.00;99.90
48264;DHT22;34086;51.076;13.722;2023-01-13T01:04:51;10.00;99.90
48264;DHT22;34086;51.076;13.722;2023-01-13T01:05:51;10.00;99.90
48264;DHT22;34086;51.076;13.722;2023-01-13T01:06:52;10.00;99.90
48264;DHT22;34086;51.076;13.722;2023-01-13T01:07:53;9.90;99.90
48264;DHT22;34086;51.076;13.722;2023-01-13T01:08:54;10.00;99.90
48264;DHT22;34086;51.076;13.722;2023-01-13T01:09:55;9.90;99.90
48264;DHT22;34086;51.076;13.722;2023-01-13T01:11:00;9.90;99.90
48264;DHT22;34086;51.076;13.722;2023-01-13T01:12:01;9.90;99.90
48264;DHT22;34086;51.076;13.722;2023-01-13T01:13:02;9.90;99.90
48264;DHT22;34086;51.076;13.722;2023-01-13T01:14:03;9.90;99.90
48264;DHT22;34086;51.076;13.722;2023-01-13T01:15:04;9.90;99.90
48264;DHT22;34086;51.076;13.722;2023-01-13T01:16:09;9.90;99.90
48264;DHT22;34086;51.076;13.722;2023-01-13T01:17:10;9.80;99.90
48264;DHT22;34086;51.076;13.722;2023-01-13T01:18:10;9.80;99.90
48264;DHT22;34086;51.076;13.722;2023-01-13T01:19:11;9.80;99.90
48264;DHT22;34086;51.076;13.722;2023-01-13T01:20:11;9.80;99.90
48264;DHT22;34086;51.076;13.722;2023-01-13T01:21:13;9.80;99.90
48264;DHT22;34086;51.076;13.722;2023-01-13T01:22:14;9.80;99.90
48264;DHT22;34086;51.076;13.722;2023-01-13T01:23:14;9.80;99.90
48264;DHT22;34086;51.076;13.722;2023-01-13T01:24:15;9.70;99.90
48264;DHT22;34086;51.076;13.722;2023-01-13T01:25:16;9.70;99.90
48264;DHT22;34086;51.076;13.722;2023-01-13T01:26:21;9.70;99.90
48264;DHT22;34086;51.076;13.722;2023-01-13T01:27:22;9.70;99.90
48264;DHT22;34086;51.076;13.722;2023-01-13T01:28:23;9.70;99.90
48264;DHT22;34086;51.076;13.722;2023-01-13T01:29:23;9.70;99.90
48264;DHT22;34086;51.076;13.722;2023-01-13T01:30:24;9.70;99.90
48264;DHT22;34086;51.076;13.722;2023-01-13T01:31:27;9.70;99.90
48264;DHT22;34086;51.076;13.722;2023-01-13T01:32:27;9.70;99.90
48264;DHT22;34086;51.076;13.722;2023-01-13T01:33:28;9.70;99.90
48264;DHT22;34086;51.076;13.722;2023-01-13T01:34:29;9.70;99.90
48264;DHT22;34086;51.076;13.722;2023-01-13T01:35:29;9.70;99.90
48264;DHT22;34086;51.076;13.722;2023-01-13T01:36:30;9.80;99.90
48264;DHT22;34086;51.076;13.722;2023-01-13T01:37:30;9.80;99.90
48264;DHT22;34086;51.076;13.722;2023-01-13T01:38:31;9.80;99.90
48264;DHT22;34086;51.076;13.722;2023-01-13T01:39:32;9.80;99.90
48264;DHT22;34086;51.076;13.722;2023-01-13T01:40:33;9.90;99.90
48264;DHT22;34086;51.076;13.722;2023-01-13T01:41:34;9.90;99.90
48264;DHT22;34086;51.076;13.722;2023-01-13T01:42:35;9.90;99.90
48264;DHT22;34086;51.076;13.722;2023-01-13T01:45:40;9.90;99.90
48264;DHT22;34086;51.076;13.722;2023-01-13T01:46:43;9.80;99.90
48264;DHT22;34086;51.076;13.722;2023-01-13T01:47:45;9.90;99.90
48264;DHT22;34086;51.076;13.722;2023-01-13T01:48:46;9.90;99.90
48264;DHT22;34086;51.076;13.722;2023-01-13T01:49:48;9.90;99.90
48264;DHT22;34086;51.076;13.722;2023-01-13T01:50:49;9.90;99.90
48264;DHT22;34086;51.076;13.722;2023-01-13T01:52:09;9.90;99.90
48264;DHT22;34086;51.076;13.722;2023-01-13T01:53:14;9.90;99.90
48264;DHT22;34086;51.076;13.722;2023-01-13T01:54:45;9.90;99.90
48264;DHT22;34086;51.076;13.722;2023-01-13T01:55:43;9.90;99.90
48264;DHT22;34086;51.076;13.722;2023-01-13T01:56:45;10.00;99.90
48264;DHT22;34086;51.076;13.722;2023-01-13T01:57:52;9.90;99.90
48264;DHT22;34086;51.076;13.722;2023-01-13T01:58:54;9.90;99.90
48264;DHT22;34086;51.076;13.722;2023-01-13T01:59:54;10.00;99.90
48264;DHT22;34086;51.076;13.722;2023-01-13T02:00:57;10.00;99.90
48264;DHT22;34086;51.076;13.722;2023-01-13T02:01:58;10.00;99.90
48264;DHT22;34086;51.076;13.722;2023-01-13T02:02:59;10.10;99.90
48264;DHT22;34086;51.076;13.722;2023-01-13T02:04:28;10.10;99.90
48264;DHT22;34086;51.076;13.722;2023-01-13T02:05:29;10.10;99.90
48264;DHT22;34086;51.076;13.722;2023-01-13T02:06:30;10.10;99.90
48264;DHT22;34086;51.076;13.722;2023-01-13T02:07:32;10.10;99.90
48264;DHT22;34086;51.076;13.722;2023-01-13T02:08:34;10.10;99.90
48264;DHT22;34086;51.076;13.722;2023-01-13T02:09:36;10.20;99.90
48264;DHT22;34086;51.076;13.722;2023-01-13T02:10:38;10.20;99.90
48264;DHT22;34086;51.076;13.722;2023-01-13T02:11:39;10.20;99.90
48264;DHT22;34086;51.076;13.722;2023-01-13T02:13:00;10.20;99.90
48264;DHT22;34086;51.076;13.722;2023-01-13T02:14:02;10.20;99.90
48264;DHT22;34086;51.076;13.722;2023-01-13T02:15:11;10.20;99.90
48264;DHT22;34086;51.076;13.722;2023-01-13T02:16:16;10.20;99.90
48264;DHT22;34086;51.076;13.722;2023-01-13T02:18:45;10.30;99.90
48264;DHT22;34086;51.076;13.722;2023-01-13T02:21:41;10.30;99.90
48264;DHT22;34086;51.076;13.722;2023-01-13T02:25:53;10.40;99.90
48264;DHT22;34086;51.076;13.722;2023-01-13T02:28:58;10.40;99.90
48264;DHT22;34086;51.076;13.722;2023-01-13T02:30:46;10.40;99.90
48264;DHT22;34086;51.076;13.722;2023-01-13T02:32:21;10.50;99.90
48264;DHT22;34086;51.076;13.722;2023-01-13T02:34:56;10.50;99.90
48264;DHT22;34086;51.076;13.722;2023-01-13T02:36:23;10.50;99.90
48264;DHT22;34086;51.076;13.722;2023-01-13T02:37:28;10.50;99.90
48264;DHT22;34086;51.076;13.722;2023-01-13T02:38:34;10.50;99.90
48264;DHT22;34086;51.076;13.722;2023-01-13T02:39:54;10.50;99.90
48264;DHT22;34086;51.076;13.722;2023-01-13T02:40:59;10.50;99.90
48264;DHT22;34086;51.076;13.722;2023-01-13T02:42:29;10.50;99.90
48264;DHT22;34086;51.076;13.722;2023-01-13T02:43:51;10.50;99.90
48264;DHT22;34086;51.076;13.722;2023-01-13T02:45:14;10.50;99.90
48264;DHT22;34086;51.076;13.722;2023-01-13T02:46:28;10.50;99.90
48264;DHT22;34086;51.076;13.722;2023-01-13T02:47:35;10.50;99.90
48264;DHT22;34086;51.076;13.722;2023-01-13T02:48:37;10.50;99.90
48264;DHT22;34086;51.076;13.722;2023-01-13T02:49:43;10.50;99.90
48264;DHT22;34086;51.076;13.722;2023-01-13T02:50:54;10.40;99.90
48264;DHT22;34086;51.076;13.722;2023-01-13T02:52:02;10.50;99.90
48264;DHT22;34086;51.076;13.722;2023-01-13T02:53:23;10.50;99.90
48264;DHT22;34086;51.076;13.722;2023-01-13T02:54:27;10.50;99.90
48264;DHT22;34086;51.076;13.722;2023-01-13T02:55:37;10.50;99.90
48264;DHT22;34086;51.076;13.722;2023-01-13T02:56:40;10.50;99.90
48264;DHT22;34086;51.076;13.722;2023-01-13T02:57:42;10.50;99.90
48264;DHT22;34086;51.076;13.722;2023-01-13T02:58:44;10.50;99.90
48264;DHT22;34086;51.076;13.722;2023-01-13T02:59:46;10.50;99.90
48264;DHT22;34086;51.076;13.722;2023-01-13T03:00:48;10.50;99.90
48264;DHT22;34086;51.076;13.722;2023-01-13T03:01:49;10.50;99.90
48264;DHT22;34086;51.076;13.722;2023-01-13T03:02:52;10.50;99.90
48264;DHT22;34086;51.076;13.722;2023-01-13T03:03:52;10.50;99.90
48264;DHT22;34086;51.076;13.722;2023-01-13T03:04:58;10.50;99.90
48264;DHT22;34086;51.076;13.722;2023-01-13T03:06:22;10.50;99.90
48264;DHT22;34086;51.076;13.722;2023-01-13T03:07:52;10.50;99.90
48264;DHT22;34086;51.076;13.722;2023-01-13T03:09:05;10.50;99.90
48264;DHT22;34086;51.076;13.722;2023-01-13T03:10:42;10.50;99.90
48264;DHT22;34086;51.076;13.722;2023-01-13T03:12:13;10.60;99.90
48264;DHT22;34086;51.076;13.722;2023-01-13T03:14:51;10.60;99.90
48264;DHT22;34086;51.076;13.722;2023-01-13T03:16:07;10.60;99.90
48264;DHT22;34086;51.076;13.722;2023-01-13T03:22:30;10.60;99.90
48264;DHT22;34086;51.076;13.722;2023-01-13T03:23:50;10.50;99.90
48264;DHT22;34086;51.076;13.722;2023-01-13T03:25:07;10.60;99.90
48264;DHT22;34086;51.076;13.722;2023-01-13T03:26:23;10.60;99.90
48264;DHT22;34086;51.076;13.722;2023-01-13T03:27:39;10.60;99.90
48264;DHT22;34086;51.076;13.722;2023-01-13T03:28:51;10.60;99.90
48264;DHT22;34086;51.076;13.722;2023-01-13T03:30:12;10.60;99.90
48264;DHT22;34086;51.076;13.722;2023-01-13T03:31:23;10.60;99.90
48264;DHT22;34086;51.076;13.722;2023-01-13T03:32:35;10.70;99.90
48264;DHT22;34086;51.076;13.722;2023-01-13T03:33:50;10.70;99.90
48264;DHT22;34086;51.076;13.722;2023-01-13T03:34:54;10.70;99.90
48264;DHT22;34086;51.076;13.722;2023-01-13T03:35:59;10.70;99.90
48264;DHT22;34086;51.076;13.722;2023-01-13T03:37:03;10.70;99.90
48264;DHT22;34086;51.076;13.722;2023-01-13T03:38:09;10.70;99.90
48264;DHT22;34086;51.076;13.722;2023-01-13T03:39:15;10.60;99.90
48264;DHT22;34086;51.076;13.722;2023-01-13T03:40:28;10.60;99.90
48264;DHT22;34086;51.076;13.722;2023-01-13T03:41:39;10.60;99.90
48264;DHT22;34086;51.076;13.722;2023-01-13T03:42:45;10.60;99.90
48264;DHT22;34086;51.076;13.722;2023-01-13T03:45:22;10.60;99.90
48264;DHT22;34086;51.076;13.722;2023-01-13T03:46:34;10.60;99.90
48264;DHT22;34086;51.076;13.722;2023-01-13T03:47:53;10.60;99.90
48264;DHT22;34086;51.076;13.722;2023-01-13T03:48:56;10.60;99.90
48264;DHT22;34086;51.076;13.722;2023-01-13T03:50:17;10.60;99.90
48264;DHT22;34086;51.076;13.722;2023-01-13T03:51:19;10.60;99.90
48264;DHT22;34086;51.076;13.722;2023-01-13T03:52:30;10.60;99.90
48264;DHT22;34086;51.076;13.722;2023-01-13T03:53:48;10.70;99.90
48264;DHT22;34086;51.076;13.722;2023-01-13T03:56:35;10.70;99.90
48264;DHT22;34086;51.076;13.722;2023-01-13T03:57:43;10.70;99.90
48264;DHT22;34086;51.076;13.722;2023-01-13T03:58:47;10.70;99.90
48264;DHT22;34086;51.076;13.722;2023-01-13T03:59:49;10.70;99.90
48264;DHT22;34086;51.076;13.722;2023-01-13T04:01:07;10.60;99.90
48264;DHT22;34086;51.076;13.722;2023-01-13T04:02:20;10.70;99.90
48264;DHT22;34086;51.076;13.722;2023-01-13T04:03:30;10.70;99.90
48264;DHT22;34086;51.076;13.722;2023-01-13T04:04:43;10.80;99.90
48264;DHT22;34086;51.076;13.722;2023-01-13T04:05:51;10.80;99.90
48264;DHT22;34086;51.076;13.722;2023-01-13T04:06:55;10.80;99.90
48264;DHT22;34086;51.076;13.722;2023-01-13T04:08:12;10.80;99.90
48264;DHT22;34086;51.076;13.722;2023-01-13T04:09:30;10.80;99.90
48264;DHT22;34086;51.076;13.722;2023-01-13T04:11:01;10.70;99.90
48264;DHT22;34086;51.076;13.722;2023-01-13T04:13:20;10.70;99.90
48264;DHT22;34086;51.076;13.722;2023-01-13T04:14:23;10.70;99.90
48264;DHT22;34086;51.076;13.722;2023-01-13T04:15:32;10.70;99.90
48264;DHT22;34086;51.076;13.722;2023-01-13T04:16:34;10.70;99.90
48264;DHT22;34086;51.076;13.722;2023-01-13T04:17:34;10.70;99.90
48264;DHT22;34086;51.076;13.722;2023-01-13T04:18:37;10.70;99.90
48264;DHT22;34086;51.076;13.722;2023-01-13T04:19:38;10.70;99.90
48264;DHT22;34086;51.076;13.722;2023-01-13T04:20:39;10.70;99.90
48264;DHT22;34086;51.076;13.722;2023-01-13T04:21:40;10.70;99.90
48264;DHT22;34086;51.076;13.722;2023-01-13T04:22:41;10.70;99.90
48264;DHT22;34086;51.076;13.722;2023-01-13T04:23:42;10.70;99.90
48264;DHT22;34086;51.076;13.722;2023-01-13T04:24:42;10.70;99.90
48264;DHT22;34086;51.076;13.722;2023-01-13T04:25:43;10.70;99.90
48264;DHT22;34086;51.076;13.722;2023-01-13T04:26:44;10.80;99.90
48264;DHT22;34086;51.076;13.722;2023-01-13T04:27:45;10.70;99.90
48264;DHT22;34086;51.076;13.722;2023-01-13T04:28:45;10.80;99.90
48264;DHT22;34086;51.076;13.722;2023-01-13T04:29:46;10.80;99.90
48264;DHT22;34086;51.076;13.722;2023-01-13T04:30:47;10.70;99.90
48264;DHT22;34086;51.076;13.722;2023-01-13T04:31:47;10.80;99.90
48264;DHT22;34086;51.076;13.722;2023-01-13T04:32:48;10.80;99.90
48264;DHT22;34086;51.076;13.722;2023-01-13T04:33:48;10.80;99.90
48264;DHT22;34086;51.076;13.722;2023-01-13T04:34:49;10.80;99.90
48264;DHT22;34086;51.076;13.722;2023-01-13T04:35:50;10.80;99.90
48264;DHT22;34086;51.076;13.722;2023-01-13T04:36:51;10.80;99.90
48264;DHT22;34086;51.076;13.722;2023-01-13T04:37:52;10.70;99.90
48264;DHT22;34086;51.076;13.722;2023-01-13T04:38:53;10.80;99.90
48264;DHT22;34086;51.076;13.722;2023-01-13T04:39:54;10.80;99.90
48264;DHT22;34086;51.076;13.722;2023-01-13T04:40:54;10.80;99.90
48264;DHT22;34086;51.076;13.722;2023-01-13T04:41:55;10.80;99.90
48264;DHT22;34086;51.076;13.722;2023-01-13T04:42:58;10.80;99.90
48264;DHT22;34086;51.076;13.722;2023-01-13T04:43:59;10.80;99.90
48264;DHT22;34086;51.076;13.722;2023-01-13T04:45:00;10.80;99.90
48264;DHT22;34086;51.076;13.722;2023-01-13T04:46:00;10.80;99.90
48264;DHT22;34086;51.076;13.722;2023-01-13T04:47:01;10.80;99.90
48264;DHT22;34086;51.076;13.722;2023-01-13T04:48:02;10.80;99.90
48264;DHT22;34086;51.076;13.722;2023-01-13T04:49:03;10.80;99.90
48264;DHT22;34086;51.076;13.722;2023-01-13T04:50:04;10.80;99.90
48264;DHT22;34086;51.076;13.722;2023-01-13T04:51:05;10.80;99.90
48264;DHT22;34086;51.076;13.722;2023-01-13T04:52:05;10.80;99.90
48264;DHT22;34086;51.076;13.722;2023-01-13T04:53:06;10.80;99.90
48264;DHT22;34086;51.076;13.722;2023-01-13T04:54:09;10.70;99.90
48264;DHT22;34086;51.076;13.722;2023-01-13T04:55:10;10.80;99.90
48264;DHT22;34086;51.076;13.722;2023-01-13T04:56:11;10.70;99.90
48264;DHT22;34086;51.076;13.722;2023-01-13T04:57:11;10.70;99.90
48264;DHT22;34086;51.076;13.722;2023-01-13T04:58:12;10.70;99.90
48264;DHT22;34086;51.076;13.722;2023-01-13T04:59:13;10.70;99.90
48264;DHT22;34086;51.076;13.722;2023-01-13T05:00:15;10.70;99.90
48264;DHT22;34086;51.076;13.722;2023-01-13T05:01:16;10.70;99.90
48264;DHT22;34086;51.076;13.722;2023-01-13T05:02:16;10.70;99.90
48264;DHT22;34086;51.076;13.722;2023-01-13T05:03:20;10.70;99.90
48264;DHT22;34086;51.076;13.722;2023-01-13T05:04:20;10.60;99.90
48264;DHT22;34086;51.076;13.722;2023-01-13T05:05:21;10.70;99.90
48264;DHT22;34086;51.076;13.722;2023-01-13T05:06:21;10.70;99.90
48264;DHT22;34086;51.076;13.722;2023-01-13T05:07:22;10.70;99.90
48264;DHT22;34086;51.076;13.722;2023-01-13T05:08:22;10.70;99.90
48264;DHT22;34086;51.076;13.722;2023-01-13T05:09:23;10.70;99.90
48264;DHT22;34086;51.076;13.722;2023-01-13T05:10:24;10.70;99.90
48264;DHT22;34086;51.076;13.722;2023-01-13T05:11:24;10.70;99.90
48264;DHT22;34086;51.076;13.722;2023-01-13T05:12:45;10.70;99.90
48264;DHT22;34086;51.076;13.722;2023-01-13T05:14:04;10.60;99.90
48264;DHT22;34086;51.076;13.722;2023-01-13T05:15:23;10.60;99.90
48264;DHT22;34086;51.076;13.722;2023-01-13T05:16:44;10.70;99.90
48264;DHT22;34086;51.076;13.722;2023-01-13T05:18:01;10.70;99.90
48264;DHT22;34086;51.076;13.722;2023-01-13T05:19:01;10.80;99.90
48264;DHT22;34086;51.076;13.722;2023-01-13T05:20:03;10.70;99.90
48264;DHT22;34086;51.076;13.722;2023-01-13T05:21:04;10.70;99.90
48264;DHT22;34086;51.076;13.722;2023-01-13T05:22:24;10.80;99.90
48264;DHT22;34086;51.076;13.722;2023-01-13T05:23:43;10.80;99.90
48264;DHT22;34086;51.076;13.722;2023-01-13T05:25:03;10.70;99.90
48264;DHT22;34086;51.076;13.722;2023-01-13T05:26:24;10.80;99.90
48264;DHT22;34086;51.076;13.722;2023-01-13T05:27:25;10.80;99.90
48264;DHT22;34086;51.076;13.722;2023-01-13T05:28:30;10.70;99.90
48264;DHT22;34086;51.076;13.722;2023-01-13T05:29:31;10.70;99.90
48264;DHT22;34086;51.076;13.722;2023-01-13T05:30:36;10.70;99.90
48264;DHT22;34086;51.076;13.722;2023-01-13T05:31:37;10.70;99.90
48264;DHT22;34086;51.076;13.722;2023-01-13T05:32:38;10.70;99.90
48264;DHT22;34086;51.076;13.722;2023-01-13T05:33:38;10.70;99.90
48264;DHT22;34086;51.076;13.722;2023-01-13T05:34:39;10.70;99.90
48264;DHT22;34086;51.076;13.722;2023-01-13T05:35:42;10.70;99.90
48264;DHT22;34086;51.076;13.722;2023-01-13T05:36:43;10.70;99.90
48264;DHT22;34086;51.076;13.722;2023-01-13T05:37:44;10.70;99.90
48264;DHT22;34086;51.076;13.722;2023-01-13T05:38:45;10.80;99.90
48264;DHT22;34086;51.076;13.722;2023-01-13T05:39:45;10.80;99.90
48264;DHT22;34086;51.076;13.722;2023-01-13T05:41:05;10.80;99.90
48264;DHT22;34086;51.076;13.722;2023-01-13T05:42:24;10.80;99.90
48264;DHT22;34086;51.076;13.722;2023-01-13T05:43:43;10.70;99.90
48264;DHT22;34086;51.076;13.722;2023-01-13T05:44:44;10.80;99.90
48264;DHT22;34086;51.076;13.722;2023-01-13T05:45:55;10.70;99.90
48264;DHT22;34086;51.076;13.722;2023-01-13T05:46:56;10.70;99.90
48264;DHT22;34086;51.076;13.722;2023-01-13T05:47:56;10.70;99.90
48264;DHT22;34086;51.076;13.722;2023-01-13T05:48:57;10.70;99.90
48264;DHT22;34086;51.076;13.722;2023-01-13T05:49:59;10.60;99.90
48264;DHT22;34086;51.076;13.722;2023-01-13T05:51:01;10.60;99.90
48264;DHT22;34086;51.076;13.722;2023-01-13T05:52:02;10.70;99.90
48264;DHT22;34086;51.076;13.722;2023-01-13T05:53:03;10.70;99.90
48264;DHT22;34086;51.076;13.722;2023-01-13T05:54:04;10.70;99.90
48264;DHT22;34086;51.076;13.722;2023-01-13T05:55:05;10.60;99.90
48264;DHT22;34086;51.076;13.722;2023-01-13T05:56:06;10.60;99.90
48264;DHT22;34086;51.076;13.722;2023-01-13T05:57:07;10.60;99.90
48264;DHT22;34086;51.076;13.722;2023-01-13T05:58:09;10.70;99.90
48264;DHT22;34086;51.076;13.722;2023-01-13T05:59:10;10.70;99.90
48264;DHT22;34086;51.076;13.722;2023-01-13T06:00:10;10.70;99.90
48264;DHT22;34086;51.076;13.722;2023-01-13T06:01:14;10.70;99.90
48264;DHT22;34086;51.076;13.722;2023-01-13T06:02:15;10.70;99.90
48264;DHT22;34086;51.076;13.722;2023-01-13T06:03:15;10.70;99.90
48264;DHT22;34086;51.076;13.722;2023-01-13T06:04:19;10.70;99.90
48264;DHT22;34086;51.076;13.722;2023-01-13T06:05:19;10.80;99.90
48264;DHT22;34086;51.076;13.722;2023-01-13T06:06:20;10.80;99.90
48264;DHT22;34086;51.076;13.722;2023-01-13T06:07:21;10.80;99.90
48264;DHT22;34086;51.076;13.722;2023-01-13T06:08:21;10.80;99.90
48264;DHT22;34086;51.076;13.722;2023-01-13T06:09:22;10.80;99.90
48264;DHT22;34086;51.076;13.722;2023-01-13T06:10:23;10.80;99.90
48264;DHT22;34086;51.076;13.722;2023-01-13T06:11:24;10.80;99.90
48264;DHT22;34086;51.076;13.722;2023-01-13T06:12:24;10.80;99.90
48264;DHT22;34086;51.076;13.722;2023-01-13T06:13:25;10.80;99.90
48264;DHT22;34086;51.076;13.722;2023-01-13T06:14:25;10.80;99.90
48264;DHT22;34086;51.076;13.722;2023-01-13T06:15:39;10.80;99.90
48264;DHT22;34086;51.076;13.722;2023-01-13T06:16:39;10.70;99.90
48264;DHT22;34086;51.076;13.722;2023-01-13T06:17:40;10.80;99.90
48264;DHT22;34086;51.076;13.722;2023-01-13T06:18:40;10.80;99.90
48264;DHT22;34086;51.076;13.722;2023-01-13T06:19:41;10.70;99.90
48264;DHT22;34086;51.076;13.722;2023-01-13T06:20:42;10.70;99.90
48264;DHT22;34086;51.076;13.722;2023-01-13T06:21:42;10.80;99.90
48264;DHT22;34086;51.076;13.722;2023-01-13T06:22:49;10.80;99.90
48264;DHT22;34086;51.076;13.722;2023-01-13T06:23:49;10.70;99.90
48264;DHT22;34086;51.076;13.722;2023-01-13T06:24:50;10.70;99.90
48264;DHT22;34086;51.076;13.722;2023-01-13T06:26:08;10.80;99.90
48264;DHT22;34086;51.076;13.722;2023-01-13T06:27:11;10.70;99.90
48264;DHT22;34086;51.076;13.722;2023-01-13T06:28:12;10.80;99.90
48264;DHT22;34086;51.076;13.722;2023-01-13T06:29:12;10.80;99.90
48264;DHT22;34086;51.076;13.722;2023-01-13T06:30:16;10.80;99.90
48264;DHT22;34086;51.076;13.722;2023-01-13T06:31:17;10.80;99.90
48264;DHT22;34086;51.076;13.722;2023-01-13T06:32:23;10.80;99.90
48264;DHT22;34086;51.076;13.722;2023-01-13T06:33:30;10.80;99.90
48264;DHT22;34086;51.076;13.722;2023-01-13T06:34:33;10.80;99.90
48264;DHT22;34086;51.076;13.722;2023-01-13T06:35:35;10.80;99.90
48264;DHT22;34086;51.076;13.722;2023-01-13T06:36:39;10.80;99.90
48264;DHT22;34086;51.076;13.722;2023-01-13T06:37:42;10.70;99.90
48264;DHT22;34086;51.076;13.722;2023-01-13T06:38:46;10.70;99.90
48264;DHT22;34086;51.076;13.722;2023-01-13T06:39:47;10.70;99.90
48264;DHT22;34086;51.076;13.722;2023-01-13T06:40:48;10.70;99.90
48264;DHT22;34086;51.076;13.722;2023-01-13T06:41:51;10.70;99.90
48264;DHT22;34086;51.076;13.722;2023-01-13T06:43:10;10.70;99.90
48264;DHT22;34086;51.076;13.722;2023-01-13T06:44:14;10.70;99.90
48264;DHT22;34086;51.076;13.722;2023-01-13T06:45:14;10.70;99.90
48264;DHT22;34086;51.076;13.722;2023-01-13T06:46:15;10.70;99.90
48264;DHT22;34086;51.076;13.722;2023-01-13T06:47:16;10.70;99.90
48264;DHT22;34086;51.076;13.722;2023-01-13T06:48:22;10.80;99.90
48264;DHT22;34086;51.076;13.722;2023-01-13T06:49:22;10.80;99.90
48264;DHT22;34086;51.076;13.722;2023-01-13T06:50:23;10.80;99.90
48264;DHT22;34086;51.076;13.722;2023-01-13T06:51:24;10.70;99.90
48264;DHT22;34086;51.076;13.722;2023-01-13T06:52:25;10.70;99.90
48264;DHT22;34086;51.076;13.722;2023-01-13T06:53:26;10.70;99.90
48264;DHT22;34086;51.076;13.722;2023-01-13T06:54:27;10.80;99.90
48264;DHT22;34086;51.076;13.722;2023-01-13T06:55:27;10.70;99.90
48264;DHT22;34086;51.076;13.722;2023-01-13T06:56:28;10.70;99.90
48264;DHT22;34086;51.076;13.722;2023-01-13T06:57:28;10.80;99.90
48264;DHT22;34086;51.076;13.722;2023-01-13T06:58:29;10.80;99.90
48264;DHT22;34086;51.076;13.722;2023-01-13T06:59:29;10.80;99.90
48264;DHT22;34086;51.076;13.722;2023-01-13T07:00:33;10.90;99.90
48264;DHT22;34086;51.076;13.722;2023-01-13T07:01:36;10.80;99.90
48264;DHT22;34086;51.076;13.722;2023-01-13T07:02:37;10.90;99.90
48264;DHT22;34086;51.076;13.722;2023-01-13T07:03:39;10.80;99.90
48264;DHT22;34086;51.076;13.722;2023-01-13T07:04:40;10.90;99.90
48264;DHT22;34086;51.076;13.722;2023-01-13T07:05:42;10.90;99.90